Williamstown, West Virginia
Current Conditions -  °F | °C
As of 2:53 AM on Tuesday 21 Oct 2014 (Local Time) from KPKB Reporting Station
Few Clouds Few Clouds  
Wind Chill: 50°   Ceiling: Unl
Heat Index: 50°   Visibility: 10mi
Dew Point: 47°   Wind: 5mph
Humidity: 89%   Direction: 230°SW
Pressure: 29.92"   Gusts: NA
Location:  39.4°N, 81.45°W
Report Text: KPKB 210653Z AUTO 23004KT 10SM FEW110 10/08 A2992 RMK AO2 SLP130 T01000083
Loading
Personal Weather Stations






























Interactive Weather Map
Tropical Storm Tracking
New forecast layout! Learn more

10-Day Weather Forecast

Advertisements
Track Severe Weather on mobile